createdAt,value
2022-08-20T00:02:43.168Z,90.51
2022-08-20T00:05:55.972Z,90.42
2022-08-20T00:08:59.185Z,89.95
2022-08-20T00:12:01.762Z,90.84
2022-08-20T00:15:06.916Z,91.43
2022-08-20T00:18:09.903Z,91.04
2022-08-20T00:21:19.072Z,90.94
2022-08-20T00:24:21.872Z,91.36
2022-08-20T00:27:24.348Z,91.28
2022-08-20T00:30:27.463Z,91.17
2022-08-20T00:33:29.943Z,91.50
2022-08-20T00:36:32.941Z,91.47
2022-08-20T00:39:36.194Z,91.47
2022-08-20T00:42:49.992Z,91.54
2022-08-20T00:45:55.701Z,91.43
2022-08-20T00:48:58.755Z,91.06
2022-08-20T00:52:03.559Z,90.91
2022-08-20T00:55:07.007Z,90.95
2022-08-20T00:58:09.961Z,91.11
2022-08-20T01:01:13.419Z,90.73
2022-08-20T01:04:16.016Z,91.07
2022-08-20T01:07:20.877Z,90.76
2022-08-20T01:10:28.522Z,90.93
2022-08-20T01:13:31.924Z,90.69
2022-08-20T01:16:35.385Z,90.38
2022-08-20T01:19:48.106Z,89.76
2022-08-20T01:23:21.720Z,89.14
2022-08-20T01:26:32.492Z,89.21
2022-08-20T01:29:39.712Z,89.91
2022-08-20T01:32:42.083Z,89.45
2022-08-20T01:35:45.104Z,88.74
2022-08-20T01:38:53.183Z,88.84
2022-08-20T01:42:03.178Z,88.62
2022-08-20T01:45:09.408Z,87.74
2022-08-20T01:48:14.302Z,87.20
2022-08-20T01:51:23.508Z,87.51
2022-08-20T01:54:27.259Z,88.19
2022-08-20T01:57:29.808Z,89.22
2022-08-20T02:00:34.941Z,88.53
2022-08-20T02:03:40.742Z,88.60
2022-08-20T02:06:57.749Z,87.13
2022-08-20T02:10:01.158Z,86.80
2022-08-20T02:13:05.815Z,86.95
2022-08-20T02:16:08.820Z,87.03
2022-08-20T02:19:16.757Z,86.63
2022-08-20T02:22:29.561Z,86.77
2022-08-20T02:25:35.705Z,87.04
2022-08-20T02:28:38.172Z,87.14
2022-08-20T02:32:23.436Z,87.16
2022-08-20T02:35:10.499Z,87.14
2022-08-20T02:38:15.820Z,86.82
2022-08-20T02:41:18.551Z,86.61
2022-08-20T02:44:21.567Z,86.67
2022-08-20T02:47:25.467Z,86.44
2022-08-20T02:50:28.594Z,86.66
2022-08-20T02:53:34.404Z,86.75
2022-08-20T02:56:36.802Z,86.92
2022-08-20T02:59:40.336Z,87.02
2022-08-20T03:02:42.838Z,87.11
2022-08-20T03:05:45.360Z,87.76
2022-08-20T03:08:47.948Z,87.14
2022-08-20T03:11:50.422Z,87.46
2022-08-20T03:14:52.793Z,87.43
2022-08-20T03:17:55.389Z,87.74
2022-08-20T03:20:57.946Z,88.25
2022-08-20T03:24:00.321Z,88.00
2022-08-20T03:27:02.769Z,89.12
2022-08-20T03:30:09.817Z,88.83
2022-08-20T03:33:12.390Z,88.79
2022-08-20T03:36:14.873Z,88.74
2022-08-20T03:39:23.252Z,88.83
2022-08-20T03:42:26.855Z,88.82
2022-08-20T03:45:30.057Z,89.45
2022-08-20T03:48:39.134Z,89.30
2022-08-20T03:51:57.950Z,89.54
2022-08-20T03:55:00.905Z,89.62
2022-08-20T03:58:06.421Z,89.20
2022-08-20T04:01:09.049Z,89.14
2022-08-20T04:04:31.312Z,88.34
2022-08-20T04:07:33.817Z,88.57
2022-08-20T04:10:37.401Z,88.57
2022-08-20T04:13:42.626Z,88.27
2022-08-20T04:16:46.464Z,88.35
2022-08-20T04:19:51.472Z,88.22
2022-08-20T04:22:56.357Z,88.11
2022-08-20T04:26:02.012Z,88.13
2022-08-20T04:29:05.136Z,88.45
2022-08-20T04:32:08.234Z,88.78
2022-08-20T04:35:18.267Z,89.59
2022-08-20T04:38:22.815Z,89.71
2022-08-20T04:41:25.195Z,89.62
2022-08-20T04:44:28.159Z,89.03
2022-08-20T04:47:34.747Z,89.40
2022-08-20T04:50:39.312Z,88.93
2022-08-20T04:53:42.935Z,88.89
2022-08-20T04:56:45.586Z,88.93
2022-08-20T04:59:47.979Z,89.54
2022-08-20T05:02:53.363Z,89.27
2022-08-20T05:05:56.993Z,89.46
2022-08-20T05:09:00.693Z,91.07
2022-08-20T05:12:03.323Z,91.14
2022-08-20T05:15:06.135Z,89.25
2022-08-20T05:18:09.512Z,88.82
2022-08-20T05:21:12.149Z,88.18
2022-08-20T05:24:18.084Z,88.42
2022-08-20T05:27:24.917Z,90.00
2022-08-20T05:30:34.167Z,90.31
2022-08-20T05:33:38.853Z,91.25
2022-08-20T05:36:45.492Z,91.62
2022-08-20T05:39:49.521Z,90.10
2022-08-20T05:42:53.870Z,89.89
2022-08-20T05:45:58.521Z,90.36
2022-08-20T05:49:07.932Z,90.82
2022-08-20T05:52:10.426Z,91.49
2022-08-20T05:55:13.448Z,90.55
2022-08-20T05:58:25.015Z,89.85
2022-08-20T06:01:27.509Z,89.95
2022-08-20T06:04:32.072Z,91.17
2022-08-20T06:07:34.643Z,91.89
2022-08-20T06:10:38.657Z,92.09
2022-08-20T06:13:44.978Z,91.22
2022-08-20T06:16:57.733Z,91.24
2022-08-20T06:20:05.031Z,91.83
2022-08-20T06:23:08.748Z,91.22
2022-08-20T06:26:11.481Z,91.74
2022-08-20T06:29:13.878Z,90.33
2022-08-20T06:32:16.879Z,91.34
2022-08-20T06:35:20.111Z,91.74
2022-08-20T06:38:23.207Z,91.47
2022-08-20T06:41:35.821Z,91.72
2022-08-20T06:44:38.812Z,90.69
2022-08-20T06:47:43.903Z,90.80
2022-08-20T06:50:47.959Z,90.23
2022-08-20T06:53:51.127Z,90.44
2022-08-20T06:56:54.700Z,90.38
2022-08-20T06:59:57.111Z,90.90
2022-08-20T07:03:03.478Z,90.81
2022-08-20T07:06:06.819Z,90.85
2022-08-20T07:09:09.329Z,90.71
2022-08-20T07:12:11.731Z,91.13
2022-08-20T07:15:15.069Z,91.34
2022-08-20T07:18:17.820Z,91.08
2022-08-20T07:21:30.941Z,90.88
2022-08-20T07:24:35.717Z,91.13
2022-08-20T07:27:40.752Z,92.18
2022-08-20T07:31:12.359Z,92.15
2022-08-20T07:34:16.284Z,92.10
2022-08-20T07:37:18.946Z,92.05
2022-08-20T07:40:28.041Z,91.79
2022-08-20T07:43:32.676Z,91.20
2022-08-20T07:46:35.279Z,90.07
2022-08-20T07:49:38.641Z,89.98
2022-08-20T07:52:41.062Z,89.22
2022-08-20T07:55:51.134Z,87.75
2022-08-20T07:59:02.323Z,86.54
2022-08-20T08:02:05.773Z,83.78
2022-08-20T08:05:08.574Z,79.43
2022-08-20T08:08:14.412Z,79.59
2022-08-20T08:11:17.178Z,79.29
2022-08-20T08:14:24.836Z,78.91
2022-08-20T08:17:28.569Z,78.61
2022-08-20T08:20:31.247Z,78.73
2022-08-20T08:23:34.963Z,79.84
2022-08-20T08:26:37.411Z,78.13
2022-08-20T08:29:40.085Z,80.22
2022-08-20T08:33:02.796Z,80.04
2022-08-20T08:36:09.837Z,80.36
2022-08-20T08:39:12.258Z,80.87
2022-08-20T08:42:27.177Z,81.86
2022-08-20T08:45:45.540Z,81.22
2022-08-20T08:48:50.785Z,82.69
2022-08-20T08:52:08.793Z,82.62
2022-08-20T08:55:19.827Z,83.20
2022-08-20T08:58:22.538Z,83.76
2022-08-20T09:01:56.244Z,83.98
2022-08-20T09:04:51.507Z,83.00
2022-08-20T09:07:54.348Z,83.66
2022-08-20T09:11:05.332Z,83.64
2022-08-20T09:14:07.694Z,82.70
2022-08-20T09:17:10.199Z,82.44
2022-08-20T09:20:12.796Z,82.75
2022-08-20T09:23:15.244Z,81.38
2022-08-20T09:26:17.977Z,81.34
2022-08-20T09:29:20.377Z,81.21
2022-08-20T09:32:24.850Z,80.38
2022-08-20T09:35:29.217Z,79.49
2022-08-20T09:38:32.839Z,79.30
2022-08-20T09:41:35.287Z,79.25
2022-08-20T09:44:38.243Z,78.82
2022-08-20T09:47:54.792Z,78.92
2022-08-20T09:50:59.436Z,80.62
2022-08-20T09:54:02.493Z,79.04
2022-08-20T09:57:07.384Z,79.33
2022-08-20T10:00:12.504Z,79.38
2022-08-20T10:03:15.401Z,79.37
2022-08-20T10:06:22.466Z,79.74
2022-08-20T10:09:24.847Z,78.99
2022-08-20T10:12:27.269Z,78.03
2022-08-20T10:15:31.139Z,78.44
2022-08-20T10:18:35.155Z,78.59
2022-08-20T10:21:39.057Z,78.54
2022-08-20T10:24:41.849Z,77.08
2022-08-20T10:27:44.783Z,77.61
2022-08-20T10:30:47.333Z,77.67
2022-08-20T10:33:49.751Z,77.34
2022-08-20T10:36:52.410Z,76.81
2022-08-20T10:39:55.339Z,76.68
2022-08-20T10:42:57.826Z,75.98
2022-08-20T10:46:00.631Z,75.84
2022-08-20T10:49:03.132Z,75.50
2022-08-20T10:52:06.026Z,75.17
2022-08-20T10:55:09.932Z,73.87
2022-08-20T10:58:13.298Z,72.42
2022-08-20T11:01:31.520Z,73.31
2022-08-20T11:04:36.158Z,73.91
2022-08-20T11:07:59.842Z,73.59
2022-08-20T11:11:02.438Z,72.96
2022-08-20T11:14:04.827Z,73.22
2022-08-20T11:17:07.767Z,73.43
2022-08-20T11:20:12.759Z,73.02
2022-08-20T11:23:18.202Z,71.93
2022-08-20T11:26:24.432Z,72.09
2022-08-20T11:29:29.968Z,71.20
2022-08-20T11:32:34.565Z,71.16
2022-08-20T11:35:49.585Z,71.18
2022-08-20T11:38:53.123Z,71.00
2022-08-20T11:41:55.859Z,70.33
2022-08-20T11:44:58.279Z,68.60
2022-08-20T11:48:00.636Z,68.24
2022-08-20T11:51:03.097Z,68.48
2022-08-20T11:54:05.846Z,67.36
2022-08-20T11:57:09.523Z,66.20
2022-08-20T12:00:20.364Z,64.90
2022-08-20T12:03:34.979Z,65.42
2022-08-20T12:06:37.426Z,64.66
2022-08-20T12:09:43.119Z,64.41
2022-08-20T12:12:54.612Z,63.41
2022-08-20T12:15:57.271Z,62.98
2022-08-20T12:18:59.665Z,62.70
2022-08-20T12:22:23.782Z,60.67
2022-08-20T12:25:25.233Z,57.11
2022-08-20T12:28:27.621Z,55.61
2022-08-20T12:31:30.120Z,54.78
2022-08-20T12:34:36.854Z,54.69
2022-08-20T12:37:39.991Z,53.58
2022-08-20T12:40:42.771Z,52.07
2022-08-20T12:43:45.180Z,48.34
2022-08-20T12:46:47.568Z,48.62
2022-08-20T12:50:01.125Z,48.70
2022-08-20T12:53:04.424Z,49.06
2022-08-20T12:56:06.951Z,49.41
2022-08-20T12:59:09.359Z,49.82
2022-08-20T13:02:15.741Z,50.49
2022-08-20T13:05:22.642Z,49.94
2022-08-20T13:08:25.012Z,49.88
2022-08-20T13:11:27.468Z,49.87
2022-08-20T13:14:30.309Z,48.60
2022-08-20T13:17:38.794Z,49.90
2022-08-20T13:20:42.012Z,49.78
2022-08-20T13:23:44.616Z,49.43
2022-08-20T13:26:47.380Z,49.92
2022-08-20T13:29:54.054Z,48.93
2022-08-20T13:33:00.387Z,50.45
2022-08-20T13:36:02.983Z,50.48
2022-08-20T13:39:06.902Z,49.41
2022-08-20T13:42:10.268Z,47.30
2022-08-20T13:45:13.320Z,46.84
2022-08-20T13:48:15.729Z,46.97
2022-08-20T13:51:19.090Z,47.59
2022-08-20T13:54:21.685Z,47.19
2022-08-20T13:57:25.511Z,45.64
2022-08-20T14:00:31.944Z,46.50
2022-08-20T14:03:35.244Z,48.07
2022-08-20T14:06:38.074Z,46.78
2022-08-20T14:09:42.118Z,45.55
2022-08-20T14:12:44.628Z,45.60
2022-08-20T14:15:47.289Z,46.22
2022-08-20T14:18:52.741Z,45.48
2022-08-20T14:21:55.355Z,45.36
2022-08-20T14:24:59.631Z,46.73
2022-08-20T14:28:19.551Z,45.98
2022-08-20T14:31:28.158Z,47.51
2022-08-20T14:34:30.871Z,50.06
2022-08-20T14:37:37.966Z,51.54
2022-08-20T14:40:40.384Z,52.07
2022-08-20T14:43:42.765Z,52.31
2022-08-20T14:46:45.158Z,51.31
2022-08-20T14:49:49.336Z,51.54
2022-08-20T14:52:52.697Z,52.64
2022-08-20T14:55:55.101Z,54.35
2022-08-20T14:58:57.486Z,55.60
2022-08-20T15:02:00.243Z,57.47
2022-08-20T15:05:04.471Z,57.53
2022-08-20T15:08:10.637Z,59.56
2022-08-20T15:11:13.832Z,60.68
2022-08-20T15:14:18.450Z,59.93
2022-08-20T15:17:27.984Z,60.48
2022-08-20T15:20:32.470Z,62.03
2022-08-20T15:23:34.868Z,63.13
2022-08-20T15:26:37.303Z,62.65
2022-08-20T15:29:40.131Z,62.19
2022-08-20T15:32:42.652Z,62.98
2022-08-20T15:35:45.127Z,62.64
2022-08-20T15:38:47.621Z,62.77
2022-08-20T15:41:49.981Z,62.58
2022-08-20T15:44:52.702Z,62.23
2022-08-20T15:48:13.078Z,62.60
2022-08-20T15:51:24.617Z,61.88
2022-08-20T15:54:28.340Z,61.19
2022-08-20T15:57:53.102Z,61.25
2022-08-20T16:01:24.789Z,61.73
2022-08-20T16:04:52.425Z,62.17
2022-08-20T16:08:25.288Z,62.61
2022-08-20T16:12:05.126Z,63.31
2022-08-20T16:15:18.893Z,64.03
2022-08-20T16:18:28.180Z,63.71
2022-08-20T16:21:34.336Z,64.96
2022-08-20T16:24:36.821Z,64.96
2022-08-20T16:28:00.138Z,64.84
2022-08-20T16:31:11.983Z,65.51
2022-08-20T16:34:32.887Z,64.92
2022-08-20T16:37:49.023Z,65.49
2022-08-20T16:41:20.181Z,65.73
2022-08-20T16:44:39.914Z,66.37
2022-08-20T16:47:42.442Z,66.62
2022-08-20T16:50:57.870Z,67.12
2022-08-20T16:54:00.334Z,67.15
2022-08-20T16:57:06.115Z,67.30
2022-08-20T17:00:29.412Z,67.70
2022-08-20T17:03:38.689Z,68.70
2022-08-20T17:06:48.367Z,69.54
2022-08-20T17:09:53.250Z,70.43
2022-08-20T17:13:00.013Z,70.39
2022-08-20T17:16:05.334Z,71.43
2022-08-20T17:19:27.233Z,71.98
2022-08-20T17:22:39.581Z,72.02
2022-08-20T17:25:42.266Z,73.56
2022-08-20T17:28:53.255Z,74.17
2022-08-20T17:32:15.269Z,75.71
2022-08-20T17:35:48.783Z,75.26
2022-08-20T17:38:54.252Z,75.42
2022-08-20T17:42:08.190Z,76.72
2022-08-20T17:45:22.767Z,78.32
2022-08-20T17:48:32.657Z,78.88
2022-08-20T17:51:38.649Z,78.84
2022-08-20T17:54:45.216Z,79.48
2022-08-20T17:57:53.242Z,80.44
2022-08-20T18:00:55.649Z,82.57
2022-08-20T18:03:58.214Z,82.35
2022-08-20T18:07:06.722Z,84.07
2022-08-20T18:10:23.652Z,83.35
2022-08-20T18:13:52.029Z,83.44
2022-08-20T18:17:31.761Z,84.20
2022-08-20T18:21:31.566Z,83.73
2022-08-20T18:24:42.415Z,84.86
2022-08-20T18:27:51.369Z,84.63
2022-08-20T18:31:00.382Z,85.31
2022-08-20T18:34:28.654Z,84.82
2022-08-20T18:37:33.147Z,84.73
2022-08-20T18:40:37.760Z,84.72
2022-08-20T18:43:41.124Z,84.34
2022-08-20T18:46:55.885Z,85.39
2022-08-20T18:50:18.472Z,85.41
2022-08-20T18:53:34.265Z,84.97
2022-08-20T18:56:42.332Z,85.10
2022-08-20T18:59:56.888Z,85.14
2022-08-20T19:03:08.513Z,85.03
2022-08-20T19:06:22.912Z,85.99
2022-08-20T19:09:37.059Z,86.66
2022-08-20T19:13:05.552Z,86.88
2022-08-20T19:16:18.713Z,85.58
2022-08-20T19:19:23.667Z,85.29
2022-08-20T19:22:27.339Z,85.59
2022-08-20T19:25:37.147Z,86.45
2022-08-20T19:28:50.411Z,86.04
2022-08-20T19:31:58.864Z,86.60
2022-08-20T19:35:06.236Z,85.81
2022-08-20T19:38:16.321Z,86.39
2022-08-20T19:41:48.755Z,86.70
2022-08-20T19:45:01.428Z,86.53
2022-08-20T19:48:14.296Z,86.39
2022-08-20T19:51:45.883Z,86.05
2022-08-20T19:54:53.969Z,86.17
2022-08-20T19:58:03.422Z,86.80
2022-08-20T20:01:11.732Z,86.97
2022-08-20T20:04:17.637Z,86.32
2022-08-20T20:07:24.761Z,86.84
2022-08-20T20:10:35.762Z,87.16
2022-08-20T20:13:38.574Z,87.02
2022-08-20T20:16:42.618Z,86.86
2022-08-20T20:19:48.855Z,86.70
2022-08-20T20:23:06.891Z,86.14
2022-08-20T20:26:16.863Z,86.12
2022-08-20T20:29:37.993Z,86.72
2022-08-20T20:32:44.330Z,86.97
2022-08-20T20:35:46.965Z,87.11
2022-08-20T20:38:58.517Z,87.17
2022-08-20T20:42:02.958Z,87.23
2022-08-20T20:45:32.903Z,87.23
2022-08-20T20:48:50.422Z,86.88
2022-08-20T20:52:15.206Z,86.82
2022-08-20T20:55:17.759Z,86.85
2022-08-20T20:58:20.135Z,87.33
2022-08-20T21:01:38.657Z,87.28
2022-08-20T21:04:49.564Z,87.90
2022-08-20T21:08:01.343Z,87.06
2022-08-20T21:11:03.798Z,86.66
2022-08-20T21:14:06.266Z,86.40
2022-08-20T21:17:11.574Z,86.44
2022-08-20T21:20:14.033Z,86.58
2022-08-20T21:23:16.699Z,86.69
2022-08-20T21:26:19.161Z,86.69
2022-08-20T21:29:28.103Z,87.26
2022-08-20T21:32:34.288Z,87.57
2022-08-20T21:35:36.686Z,87.50
2022-08-20T21:38:39.185Z,87.44
2022-08-20T21:41:42.828Z,87.46
2022-08-20T21:44:49.331Z,87.82
2022-08-20T21:47:52.236Z,87.60
2022-08-20T21:50:54.652Z,87.51
2022-08-20T21:53:57.048Z,87.52
2022-08-20T21:57:06.292Z,86.66
2022-08-20T22:00:46.639Z,86.43
2022-08-20T22:03:49.546Z,86.31
2022-08-20T22:06:54.450Z,85.60
2022-08-20T22:09:56.857Z,85.70
2022-08-20T22:12:59.308Z,85.54
2022-08-20T22:16:08.991Z,85.64
2022-08-20T22:19:15.940Z,85.30
2022-08-20T22:22:20.588Z,85.19
2022-08-20T22:25:23.469Z,84.99
2022-08-20T22:28:26.651Z,84.98
2022-08-20T22:31:31.744Z,85.22
2022-08-20T22:34:41.747Z,85.28
2022-08-20T22:37:44.221Z,85.44
2022-08-20T22:40:46.679Z,85.46
2022-08-20T22:43:55.829Z,85.39
2022-08-20T22:47:02.872Z,85.83
2022-08-20T22:50:07.881Z,86.04
2022-08-20T22:53:11.550Z,85.88
2022-08-20T22:56:19.948Z,85.84
2022-08-20T22:59:25.020Z,85.79
2022-08-20T23:02:28.034Z,85.71
2022-08-20T23:05:33.089Z,86.09
2022-08-20T23:08:35.514Z,86.23
2022-08-20T23:11:38.028Z,86.19
2022-08-20T23:14:40.452Z,86.33
2022-08-20T23:17:43.163Z,85.38
2022-08-20T23:20:51.680Z,85.22
2022-08-20T23:23:54.185Z,84.84
2022-08-20T23:26:57.271Z,84.96
2022-08-20T23:29:59.657Z,85.11
2022-08-20T23:33:03.570Z,85.23
2022-08-20T23:36:09.169Z,85.16
2022-08-20T23:39:11.796Z,85.30
2022-08-20T23:42:14.556Z,85.25
2022-08-20T23:45:17.330Z,85.16
2022-08-20T23:48:19.758Z,85.17
2022-08-20T23:51:22.151Z,84.95
2022-08-20T23:54:24.544Z,84.32
2022-08-20T23:57:26.932Z,83.96
